X  Sluiten METAR luchtvaart weer gegevens      LYNI Nis Airport
Temperatuur
13°C Temperatuur
11°C Dauwpunt
88% Vochtigheid



Wind
1 M/S
3 MPH
5 KM/U
3 KTS



190°
Z
Huidig weer

Wat bewolking Wat bewolking
Luchtdruk 1012.92 (hPa) - 29.91 (inHg)
Zicht 6.2 (mijl) - 10 (km)
Vliegveld
Vliegveld code LYNI

Locatie : Nis Airport
Afstand: 63 (km)

Metar:
LYNI 090930Z 19003KT 110V220 9999 FEW047 13/11 Q1013 NOSIG

Tijd: 09-12-2022 10:30 CET